Laughlin Air Force Base
KDLF : now visible

Airfield :











YOU CAN JOIN US ON...

 
LOGIN :

Register | Disclaimer

   EN    FR    IT 

 









Legend :    VFR   Marginal VFR   IFR   Intensive IFR   Very Intensive IFR
Visi :
Ceiling :
>= 8 km
>= 3000ft
5 to 8 km
1000 to 3000 ft
1500m to 5 km
500 to 1000 ft
800 to 1500m
200 to 500 ft
< 800m
< 200 ft
Symbols :   Thunderstorms  Fog  Heavy snow  Heavy precipitations  Wind > 20 kt






- Airport Elevation : 1082 ft


KDLF - Laughlin Air Force Base

CURRENT METAR :
  • 232256Z AUTO 31005KT 10SM CLR 23/02 A2997 RMK AO2 SLPNO T02290018 $

EXPIRED METARs :
  • 232156Z AUTO 32009KT 10SM CLR 23/03 A2996 RMK AO2 SLPNO T02310025 $

TAF TAF KDLF
Valid from the 23 at 18:00 until the 25 at 00:00 UTC


231800Z 2318/2424 33012KT 9999 SKC QNH2996INS
BECMG 2403/2404 09006KT 9999 SKC QNH3001INS
BECMG 2410/2411 14010KT 9999 SCT030 QNH3006INS TX23/2322Z TN05/2411Z



MET'MAP, your aeronautical weather chart ! - Copyright ORBIFLY December 2007 - Disclaimer

ORBIFLY MET'MAP TEAM :

Programming & Development : Alexandra Zaïnal
Concept & original design : Baudouin d'Aumeries
Assistance for programming : Marc-Olivier Méhu
Technical & hardware support : Manuel Goepfert

Contact : metmap@orbifly.com




SOURCES & CREDITS :

   NOAA       Earth
Advisory